createdAt,value
2019-02-28T00:02:28.070Z,98189.95
2019-02-28T00:04:58.204Z,98189.77
2019-02-28T00:07:28.329Z,98198.67
2019-02-28T00:09:58.521Z,98196.71
2019-02-28T00:12:28.641Z,98192.66
2019-02-28T00:14:59.394Z,98201.44
2019-02-28T00:17:29.532Z,98193.36
2019-02-28T00:19:59.805Z,98193.36
2019-02-28T00:22:29.986Z,98194.11
2019-02-28T00:25:01.188Z,98195.84
2019-02-28T00:27:32.186Z,98185.88
2019-02-28T00:30:06.077Z,98180.16
2019-02-28T00:32:34.581Z,98184.91
2019-02-28T00:35:05.044Z,98183.20
2019-02-28T00:37:35.318Z,98171.09
2019-02-28T00:40:06.700Z,98170.95
2019-02-28T00:42:37.678Z,98172.81
2019-02-28T00:45:08.486Z,98171.58
2019-02-28T00:47:38.706Z,98170.63
2019-02-28T00:50:09.076Z,98162.86
2019-02-28T00:52:39.395Z,98163.56
2019-02-28T00:55:09.743Z,98153.16
2019-02-28T00:57:39.972Z,98156.53
2019-02-28T01:00:11.578Z,98149.42
2019-02-28T01:02:41.958Z,98141.18
2019-02-28T01:05:12.307Z,98145.04
2019-02-28T01:07:42.652Z,98137.95
2019-02-28T01:10:13.452Z,98128.53
2019-02-28T01:12:43.974Z,98125.80
2019-02-28T01:15:15.624Z,98125.81
2019-02-28T01:17:46.122Z,98119.05
2019-02-28T01:20:16.797Z,98118.80
2019-02-28T01:22:47.144Z,98109.66
2019-02-28T01:25:17.551Z,98106.97
2019-02-28T01:27:47.933Z,98107.72
2019-02-28T01:30:18.438Z,98101.59
2019-02-28T01:32:50.943Z,98094.73
2019-02-28T01:35:20.622Z,98088.91
2019-02-28T01:37:52.353Z,98084.43
2019-02-28T01:40:22.902Z,98081.34
2019-02-28T01:42:54.882Z,98078.17
2019-02-28T01:45:25.051Z,98076.19
2019-02-28T01:47:55.221Z,98073.77
2019-02-28T01:50:25.491Z,98069.56
2019-02-28T01:52:55.806Z,98068.15
2019-02-28T01:55:26.083Z,98065.80
2019-02-28T01:57:56.358Z,98064.84
2019-02-28T02:00:26.778Z,98059.94
2019-02-28T02:02:57.114Z,98060.83
2019-02-28T02:05:27.298Z,98057.70
2019-02-28T02:07:57.550Z,98056.69
2019-02-28T02:10:27.883Z,98056.34
2019-02-28T02:12:58.113Z,98060.75
2019-02-28T02:15:28.555Z,98057.84
2019-02-28T02:17:58.917Z,98056.51
2019-02-28T02:20:29.230Z,98054.95
2019-02-28T02:22:59.458Z,98059.55
2019-02-28T02:25:29.762Z,98057.37
2019-02-28T02:27:59.913Z,98052.29
2019-02-28T02:30:30.145Z,98046.45
2019-02-28T02:33:00.508Z,98043.03
2019-02-28T02:35:30.767Z,98043.08
2019-02-28T02:38:03.566Z,98037.25
2019-02-28T02:40:32.747Z,98039.78
2019-02-28T02:43:03.076Z,98031.58
2019-02-28T02:45:33.382Z,98026.04
2019-02-28T02:48:05.308Z,98027.28
2019-02-28T02:50:36.138Z,98024.30
2019-02-28T02:53:06.684Z,98022.34
2019-02-28T02:55:36.930Z,98018.37
2019-02-28T02:58:07.156Z,98023.30
2019-02-28T03:00:37.455Z,98015.73
2019-02-28T03:03:07.898Z,98020.38
2019-02-28T03:05:38.324Z,98012.00
2019-02-28T03:08:08.500Z,98000.67
2019-02-28T03:10:38.709Z,97998.53
2019-02-28T03:13:08.944Z,98003.41
2019-02-28T03:15:39.204Z,98001.23
2019-02-28T03:18:09.609Z,97998.42
2019-02-28T03:20:41.296Z,97993.25
2019-02-28T03:23:12.153Z,98000.47
2019-02-28T03:25:42.419Z,98000.50
2019-02-28T03:28:14.044Z,97997.69
2019-02-28T03:30:44.433Z,98006.56
2019-02-28T03:33:24.084Z,97996.13
2019-02-28T03:35:46.610Z,97992.61
2019-02-28T03:38:16.950Z,97984.08
2019-02-28T03:40:47.282Z,97987.21
2019-02-28T03:43:17.613Z,97984.55
2019-02-28T03:45:47.835Z,97978.41
2019-02-28T03:48:18.067Z,97979.54
2019-02-28T03:50:48.290Z,97973.22
2019-02-28T03:53:20.006Z,97975.20
2019-02-28T03:55:50.657Z,97973.75
2019-02-28T03:58:21.028Z,97973.85
2019-02-28T04:00:51.487Z,97982.38
2019-02-28T04:03:21.915Z,97974.88
2019-02-28T04:05:52.176Z,97981.73
2019-02-28T04:08:29.446Z,97977.12
2019-02-28T04:10:55.729Z,97974.24
2019-02-28T04:13:26.174Z,97977.05
2019-02-28T04:16:08.588Z,97969.98
2019-02-28T04:18:28.661Z,97968.98
2019-02-28T04:20:58.788Z,97977.94
2019-02-28T04:23:35.673Z,97977.50
2019-02-28T04:26:01.045Z,97981.64
2019-02-28T04:28:31.260Z,97978.95
2019-02-28T04:31:01.425Z,97980.44
2019-02-28T04:33:37.559Z,97987.25
2019-02-28T04:36:03.611Z,97980.59
2019-02-28T04:38:33.751Z,97980.63
2019-02-28T04:41:04.062Z,97976.18
2019-02-28T04:43:34.291Z,97975.64
2019-02-28T04:46:04.529Z,97975.23
2019-02-28T04:48:38.976Z,97971.83
2019-02-28T04:51:09.343Z,97975.52
2019-02-28T04:53:39.634Z,97978.23
2019-02-28T04:56:11.446Z,97980.42
2019-02-28T04:58:41.683Z,97979.30
2019-02-28T05:01:12.290Z,97962.91
2019-02-28T05:03:43.453Z,97984.05
2019-02-28T05:06:13.664Z,97981.17
2019-02-28T05:08:43.821Z,97981.78
2019-02-28T05:11:14.024Z,97977.09
2019-02-28T05:13:48.518Z,97982.05
2019-02-28T05:16:16.089Z,97976.75
2019-02-28T05:18:46.360Z,97979.69
2019-02-28T05:21:19.550Z,97977.55
2019-02-28T05:23:48.442Z,97977.99
2019-02-28T05:26:18.572Z,97976.07
2019-02-28T05:28:48.801Z,97981.13
2019-02-28T05:31:18.974Z,97983.02
2019-02-28T05:33:49.103Z,97985.22
2019-02-28T05:36:19.357Z,97988.28
2019-02-28T05:38:49.683Z,97989.84
2019-02-28T05:41:19.992Z,97984.94
2019-02-28T05:43:50.170Z,97988.47
2019-02-28T05:46:23.644Z,97987.45
2019-02-28T05:48:52.365Z,97990.58
2019-02-28T05:51:24.902Z,97983.58
2019-02-28T05:53:54.395Z,97989.39
2019-02-28T05:56:24.565Z,97990.00
2019-02-28T05:58:54.822Z,97995.51
2019-02-28T06:01:25.058Z,98000.85
2019-02-28T06:03:55.177Z,97997.39
2019-02-28T06:06:25.443Z,98004.84
2019-02-28T06:08:55.580Z,98006.32
2019-02-28T06:11:25.826Z,98001.22
2019-02-28T06:13:56.106Z,98018.40
2019-02-28T06:16:26.383Z,98007.08
2019-02-28T06:18:56.554Z,98008.92
2019-02-28T06:21:26.992Z,98012.08
2019-02-28T06:23:57.110Z,98019.59
2019-02-28T06:26:27.338Z,98023.61
2019-02-28T06:28:57.640Z,98024.53
2019-02-28T06:31:27.910Z,98021.45
2019-02-28T06:33:58.143Z,98027.14
2019-02-28T06:36:29.209Z,98032.97
2019-02-28T06:39:00.133Z,98031.08
2019-02-28T06:41:30.422Z,98027.07
2019-02-28T06:44:00.695Z,98036.66
2019-02-28T06:46:30.973Z,98045.80
2019-02-28T06:49:06.904Z,98047.24
2019-02-28T06:51:33.174Z,98054.10
2019-02-28T06:54:04.407Z,98042.84
2019-02-28T06:56:35.494Z,98050.85
2019-02-28T06:59:05.907Z,98054.25
2019-02-28T07:01:36.160Z,98054.88
2019-02-28T07:04:06.407Z,98056.72
2019-02-28T07:06:36.685Z,98051.03
2019-02-28T07:09:08.267Z,98046.64
2019-02-28T07:11:38.591Z,98043.73
2019-02-28T07:14:12.834Z,98043.08
2019-02-28T07:16:40.875Z,98043.70
2019-02-28T07:19:11.078Z,98045.23
2019-02-28T07:21:43.984Z,98045.25
2019-02-28T07:24:13.325Z,98049.11
2019-02-28T07:26:43.671Z,98051.52
2019-02-28T07:29:13.912Z,98051.95
2019-02-28T07:31:44.099Z,98054.88
2019-02-28T07:34:19.292Z,98051.22
2019-02-28T07:36:46.359Z,98051.14
2019-02-28T07:39:16.555Z,98046.14
2019-02-28T07:41:46.720Z,98047.69
2019-02-28T07:44:21.218Z,98054.81
2019-02-28T07:46:48.917Z,98051.98
2019-02-28T07:49:19.212Z,98049.51
2019-02-28T07:51:49.465Z,98058.11
2019-02-28T07:54:20.517Z,98055.16
2019-02-28T07:56:50.890Z,98056.87
2019-02-28T07:59:22.246Z,98056.89
2019-02-28T08:01:52.424Z,98055.16
2019-02-28T08:04:22.681Z,98059.58
2019-02-28T08:06:54.765Z,98058.81
2019-02-28T08:09:30.888Z,98057.11
2019-02-28T08:12:01.245Z,98058.54
2019-02-28T08:14:31.577Z,98048.17
2019-02-28T08:17:01.920Z,98047.56
2019-02-28T08:19:32.044Z,98050.48
2019-02-28T08:22:02.195Z,98037.39
2019-02-28T08:24:35.876Z,98038.42
2019-02-28T08:27:04.499Z,98043.52
2019-02-28T08:29:34.792Z,98042.59
2019-02-28T08:32:08.004Z,98044.00
2019-02-28T08:34:37.572Z,98046.83
2019-02-28T08:37:07.908Z,98042.73
2019-02-28T08:39:41.131Z,98044.41
2019-02-28T08:42:10.114Z,98040.09
2019-02-28T08:44:40.398Z,98045.25
2019-02-28T08:47:10.809Z,98039.38
2019-02-28T08:49:48.569Z,98039.42
2019-02-28T08:52:18.736Z,98037.83
2019-02-28T08:54:48.991Z,98035.89
2019-02-28T08:57:25.266Z,98043.08
2019-02-28T08:59:52.529Z,98040.13
2019-02-28T09:02:23.588Z,98046.88
2019-02-28T09:04:53.895Z,98040.45
2019-02-28T09:07:24.123Z,98042.40
2019-02-28T09:09:54.403Z,98043.12
2019-02-28T09:12:24.736Z,98037.32
2019-02-28T09:14:56.215Z,98035.56
2019-02-28T09:17:26.648Z,98035.59
2019-02-28T09:19:56.921Z,98036.92
2019-02-28T09:22:28.030Z,98036.67
2019-02-28T09:24:58.421Z,98029.51
2019-02-28T09:27:28.642Z,98034.17
2019-02-28T09:29:58.883Z,98034.20
2019-02-28T09:32:29.087Z,98032.08
2019-02-28T09:34:59.251Z,98032.66
2019-02-28T09:37:31.081Z,98033.75
2019-02-28T09:40:01.261Z,98036.97
2019-02-28T09:42:31.502Z,98032.66
2019-02-28T09:45:06.565Z,98029.72
2019-02-28T09:47:33.691Z,98023.27
2019-02-28T09:50:07.614Z,98023.81
2019-02-28T09:52:41.231Z,98029.42
2019-02-28T09:55:13.461Z,98023.73
2019-02-28T09:57:43.869Z,97974.95
2019-02-28T10:00:19.388Z,98021.55
2019-02-28T10:02:49.675Z,98015.27
2019-02-28T10:05:20.129Z,98016.63
2019-02-28T10:07:50.509Z,98017.14
2019-02-28T10:10:22.118Z,98011.66
2019-02-28T10:12:52.603Z,98007.40
2019-02-28T10:15:23.038Z,98005.67
2019-02-28T10:17:53.369Z,98002.93
2019-02-28T10:20:26.995Z,98007.23
2019-02-28T10:22:58.151Z,98020.05
2019-02-28T10:25:28.576Z,98011.73
2019-02-28T10:28:02.602Z,98006.45
2019-02-28T10:30:32.535Z,98000.53
2019-02-28T10:33:03.135Z,98012.06
2019-02-28T10:35:36.622Z,98008.87
2019-02-28T10:38:05.486Z,98007.69
2019-02-28T10:40:35.918Z,98005.51
2019-02-28T10:43:06.288Z,98014.88
2019-02-28T10:45:41.127Z,98011.19
2019-02-28T10:48:08.483Z,97999.59
2019-02-28T10:50:38.840Z,97993.97
2019-02-28T10:53:09.326Z,97986.66
2019-02-28T10:55:39.801Z,97978.77
2019-02-28T10:58:12.503Z,97978.94
2019-02-28T11:00:43.977Z,97984.01
2019-02-28T11:03:14.558Z,97981.77
2019-02-28T11:05:45.706Z,97986.44
2019-02-28T11:08:19.187Z,97987.18
2019-02-28T11:10:49.067Z,97979.07
2019-02-28T11:13:20.371Z,97989.20
2019-02-28T11:15:51.238Z,97977.52
2019-02-28T11:18:21.735Z,97985.03
2019-02-28T11:20:52.111Z,97973.27
2019-02-28T11:23:23.794Z,97977.80
2019-02-28T11:25:54.673Z,97965.68
2019-02-28T11:28:28.216Z,97946.30
2019-02-28T11:30:57.967Z,97955.30
2019-02-28T11:33:28.265Z,97953.19
2019-02-28T11:35:59.389Z,97948.25
2019-02-28T11:38:29.705Z,97946.64
2019-02-28T11:41:00.005Z,97942.47
2019-02-28T11:43:30.193Z,97943.59
2019-02-28T11:46:02.969Z,97950.64
2019-02-28T11:48:32.816Z,97943.21
2019-02-28T11:51:03.175Z,97949.91
2019-02-28T11:53:39.286Z,97954.47
2019-02-28T11:56:05.606Z,97947.88
2019-02-28T11:58:35.773Z,97945.79
2019-02-28T12:01:10.080Z,97948.70
2019-02-28T12:03:38.605Z,97947.75
2019-02-28T12:06:08.930Z,97934.74
2019-02-28T12:08:41.546Z,97931.19
2019-02-28T12:11:11.367Z,97941.03
2019-02-28T12:13:41.629Z,97935.54
2019-02-28T12:16:11.975Z,97927.61
2019-02-28T12:18:42.307Z,97929.17
2019-02-28T12:21:12.585Z,97927.64
2019-02-28T12:23:42.763Z,97923.45
2019-02-28T12:26:14.438Z,97914.38
2019-02-28T12:28:44.897Z,97918.56
2019-02-28T12:31:15.199Z,97921.29
2019-02-28T12:33:45.761Z,97923.09
2019-02-28T12:36:16.065Z,97912.92
2019-02-28T12:38:46.403Z,97915.47
2019-02-28T12:41:16.773Z,97910.57
2019-02-28T12:43:47.072Z,97898.13
2019-02-28T12:46:19.132Z,97906.97
2019-02-28T12:48:49.439Z,97917.27
2019-02-28T12:51:19.784Z,97909.05
2019-02-28T12:53:50.097Z,97913.23
2019-02-28T12:56:20.202Z,97904.39
2019-02-28T12:58:50.496Z,97901.11
2019-02-28T13:01:20.843Z,97893.62
2019-02-28T13:03:54.627Z,97911.63
2019-02-28T13:06:23.755Z,97897.06
2019-02-28T13:08:54.979Z,97898.83
2019-02-28T13:11:25.483Z,97877.93
2019-02-28T13:13:55.780Z,97876.38
2019-02-28T13:16:26.128Z,97883.11
2019-02-28T13:18:57.510Z,97877.05
2019-02-28T13:21:27.937Z,97876.09
2019-02-28T13:23:58.259Z,97870.05
2019-02-28T13:26:30.502Z,97856.67
2019-02-28T13:29:00.497Z,97864.53
2019-02-28T13:31:30.828Z,97854.86
2019-02-28T13:34:01.252Z,97862.41
2019-02-28T13:36:31.634Z,97858.16
2019-02-28T13:39:01.895Z,97854.80
2019-02-28T13:41:32.668Z,97846.02
2019-02-28T13:44:02.915Z,97848.03
2019-02-28T13:46:34.364Z,97850.48
2019-02-28T13:49:04.913Z,97846.22
2019-02-28T13:51:40.351Z,97858.33
2019-02-28T13:54:07.481Z,97845.90
2019-02-28T13:56:37.751Z,97844.78
2019-02-28T13:59:07.891Z,97846.85
2019-02-28T14:01:38.092Z,97844.62
2019-02-28T14:04:08.342Z,97846.57
2019-02-28T14:06:38.522Z,97845.34
2019-02-28T14:09:09.981Z,97845.23
2019-02-28T14:11:41.770Z,97845.77
2019-02-28T14:14:12.414Z,97838.83
2019-02-28T14:16:42.662Z,97838.17
2019-02-28T14:19:12.961Z,97835.22
2019-02-28T14:21:43.265Z,97830.53
2019-02-28T14:24:13.600Z,97832.28
2019-02-28T14:26:46.583Z,97819.05
2019-02-28T14:29:16.281Z,97819.08
2019-02-28T14:31:46.532Z,97816.72
2019-02-28T14:34:16.908Z,97816.84
2019-02-28T14:36:47.209Z,97808.16
2019-02-28T14:39:17.607Z,97809.23
2019-02-28T14:41:47.942Z,97803.77
2019-02-28T14:44:18.240Z,97797.98
2019-02-28T14:46:49.894Z,97804.33
2019-02-28T14:49:20.663Z,97801.77
2019-02-28T14:51:51.032Z,97793.99
2019-02-28T14:54:21.917Z,97792.33
2019-02-28T14:56:53.264Z,97787.67
2019-02-28T14:59:23.721Z,97784.09
2019-02-28T15:01:54.219Z,97780.34
2019-02-28T15:04:24.678Z,97784.71
2019-02-28T15:06:55.041Z,97787.07
2019-02-28T15:09:27.084Z,97783.89
2019-02-28T15:11:57.692Z,97772.72
2019-02-28T15:14:27.895Z,97778.99
2019-02-28T15:16:58.287Z,97770.05
2019-02-28T15:19:28.697Z,97781.47
2019-02-28T15:21:58.855Z,97779.73
2019-02-28T15:24:29.209Z,97776.34
2019-02-28T15:26:59.415Z,97780.92
2019-02-28T15:29:29.670Z,97783.14
2019-02-28T15:31:59.766Z,97789.99
2019-02-28T15:34:30.027Z,97780.12
2019-02-28T15:37:00.414Z,97775.84
2019-02-28T15:39:30.615Z,97782.87
2019-02-28T15:42:00.932Z,97781.26
2019-02-28T15:44:31.193Z,97783.23
2019-02-28T15:47:01.490Z,97787.22
2019-02-28T15:49:31.776Z,97796.55
2019-02-28T15:52:05.062Z,97804.22
2019-02-28T15:54:34.259Z,97811.26
2019-02-28T15:57:04.575Z,97804.54
2019-02-28T15:59:35.086Z,97804.13
2019-02-28T16:02:06.387Z,97815.48
2019-02-28T16:04:37.421Z,97814.76
2019-02-28T16:07:07.836Z,97818.09
2019-02-28T16:09:38.175Z,97830.27
2019-02-28T16:12:08.504Z,97836.31
2019-02-28T16:14:38.800Z,97842.27
2019-02-28T16:17:09.211Z,97843.66
2019-02-28T16:19:39.550Z,97838.12
2019-02-28T16:22:10.043Z,97833.08
2019-02-28T16:24:40.657Z,97831.49
2019-02-28T16:27:11.055Z,97827.52
2019-02-28T16:29:41.292Z,97848.74
2019-02-28T16:32:14.110Z,97831.88
2019-02-28T16:34:43.662Z,97832.45
2019-02-28T16:37:14.019Z,97838.11
2019-02-28T16:39:44.332Z,97832.22
2019-02-28T16:42:14.591Z,97838.94
2019-02-28T16:44:44.785Z,97838.69
2019-02-28T16:47:15.116Z,97849.11
2019-02-28T16:49:45.409Z,97846.17
2019-02-28T16:52:15.713Z,97849.94
2019-02-28T16:54:45.998Z,97863.55
2019-02-28T16:57:16.881Z,97860.87
2019-02-28T16:59:47.144Z,97864.88
2019-02-28T17:02:17.359Z,97873.19
2019-02-28T17:04:48.697Z,97882.00
2019-02-28T17:07:19.608Z,97882.28
2019-02-28T17:09:49.906Z,97884.14
2019-02-28T17:12:35.032Z,97895.90
2019-02-28T17:15:11.760Z,97887.86
2019-02-28T17:17:47.928Z,97894.23
2019-02-28T17:20:18.292Z,97897.41
2019-02-28T17:22:48.881Z,97895.58
2019-02-28T17:25:21.613Z,97903.02
2019-02-28T17:28:00.087Z,97903.49
2019-02-28T17:30:38.511Z,97900.76
2019-02-28T17:33:09.777Z,97907.06
2019-02-28T17:35:40.335Z,97908.11
2019-02-28T17:38:10.805Z,97913.91
2019-02-28T17:40:40.997Z,97912.28
2019-02-28T17:43:11.305Z,97913.57
2019-02-28T17:45:41.515Z,97908.62
2019-02-28T17:49:09.973Z,97916.10
2019-02-28T17:52:09.789Z,97925.70
2019-02-28T17:55:16.801Z,97921.30
2019-02-28T17:58:16.969Z,97931.16
2019-02-28T18:01:56.256Z,97934.58
2019-02-28T18:05:03.922Z,97939.27
2019-02-28T18:08:01.962Z,97943.52
2019-02-28T18:11:30.884Z,97947.61
2019-02-28T18:14:13.438Z,97955.63
2019-02-28T18:18:08.843Z,97950.97
2019-02-28T18:21:41.039Z,97957.61
2019-02-28T18:24:54.313Z,97962.35
2019-02-28T18:28:34.953Z,97960.68
2019-02-28T18:31:07.239Z,97956.38
2019-02-28T18:33:41.859Z,97955.75
2019-02-28T18:36:14.496Z,97958.19
2019-02-28T18:38:44.747Z,97956.38
2019-02-28T18:41:15.102Z,97968.56
2019-02-28T18:43:45.257Z,97977.91
2019-02-28T18:46:15.504Z,97974.41
2019-02-28T18:48:45.716Z,97981.16
2019-02-28T18:51:16.718Z,97973.10
2019-02-28T18:53:46.951Z,97982.43
2019-02-28T18:56:17.428Z,97977.31
2019-02-28T18:58:47.825Z,97983.45
2019-02-28T19:01:18.218Z,97988.78
2019-02-28T19:03:48.561Z,97998.32
2019-02-28T19:06:18.709Z,97992.65
2019-02-28T19:08:49.122Z,97991.86
2019-02-28T19:11:19.442Z,97997.11
2019-02-28T19:13:49.766Z,98005.45
2019-02-28T19:16:20.135Z,98007.77
2019-02-28T19:18:50.447Z,98002.21
2019-02-28T19:21:20.727Z,97999.47
2019-02-28T19:23:51.083Z,97991.68
2019-02-28T19:26:21.356Z,97994.84
2019-02-28T19:28:51.791Z,98004.45
2019-02-28T19:31:22.076Z,97995.73
2019-02-28T19:33:52.531Z,98006.30
2019-02-28T19:36:22.786Z,98005.17
2019-02-28T19:38:53.148Z,98014.19
2019-02-28T19:41:23.531Z,98008.68
2019-02-28T19:43:53.667Z,98014.94
2019-02-28T19:46:23.983Z,98016.53
2019-02-28T19:48:54.191Z,98007.15
2019-02-28T19:51:24.419Z,98006.34
2019-02-28T19:53:54.729Z,98006.19
2019-02-28T19:56:25.041Z,97997.08
2019-02-28T19:58:55.431Z,97999.41
2019-02-28T20:01:25.880Z,97987.25
2019-02-28T20:03:56.137Z,97976.66
2019-02-28T20:06:26.346Z,97985.65
2019-02-28T20:08:56.615Z,97984.28
2019-02-28T20:11:27.039Z,97976.86
2019-02-28T20:13:57.285Z,97983.19
2019-02-28T20:16:27.696Z,97983.04
2019-02-28T20:18:58.045Z,97977.34
2019-02-28T20:21:28.359Z,97983.11
2019-02-28T20:23:58.578Z,97982.63
2019-02-28T20:26:28.910Z,97977.53
2019-02-28T20:28:59.209Z,97986.94
2019-02-28T20:31:29.768Z,97971.77
2019-02-28T20:33:59.990Z,97975.00
2019-02-28T20:36:30.143Z,97964.84
2019-02-28T20:39:00.541Z,97963.52
2019-02-28T20:41:30.741Z,97952.91
2019-02-28T20:44:00.973Z,97958.42
2019-02-28T20:46:31.347Z,97960.53
2019-02-28T20:49:01.630Z,97960.06
2019-02-28T20:51:31.895Z,97957.15
2019-02-28T20:54:02.279Z,97961.83
2019-02-28T20:56:37.577Z,97957.64
2019-02-28T20:59:08.022Z,97962.05
2019-02-28T21:03:40.319Z,97966.66
2019-02-28T21:06:10.677Z,97972.96
2019-02-28T21:08:40.972Z,97969.48
2019-02-28T21:11:11.262Z,97971.14
2019-02-28T21:13:41.609Z,97968.25
2019-02-28T21:16:12.001Z,97969.12
2019-02-28T21:18:42.457Z,97971.44
2019-02-28T21:21:12.790Z,97969.81
2019-02-28T21:23:42.968Z,97963.25
2019-02-28T21:26:13.224Z,97958.87
2019-02-28T21:28:43.583Z,97953.55
2019-02-28T21:31:13.763Z,97953.84
2019-02-28T21:33:43.996Z,97955.69
2019-02-28T21:36:14.342Z,97953.81
2019-02-28T21:38:44.681Z,97942.09
2019-02-28T21:41:15.272Z,97950.37
2019-02-28T21:43:45.438Z,97941.86
2019-02-28T21:46:15.760Z,97945.31
2019-02-28T21:48:46.091Z,97938.28
2019-02-28T21:51:16.363Z,97931.80
2019-02-28T21:53:46.585Z,97930.88
2019-02-28T21:56:16.816Z,97930.67
2019-02-28T21:58:47.083Z,97926.30
2019-02-28T22:01:17.403Z,97925.55
2019-02-28T22:03:47.705Z,97924.42
2019-02-28T22:06:18.066Z,97908.08
2019-02-28T22:08:48.441Z,97906.66
2019-02-28T22:11:19.079Z,97912.05
2019-02-28T22:13:49.417Z,97910.65
2019-02-28T22:16:19.699Z,97902.12
2019-02-28T22:18:49.969Z,97905.91
2019-02-28T22:21:20.199Z,97902.00
2019-02-28T22:23:50.424Z,97906.83
2019-02-28T22:26:23.761Z,97895.86
2019-02-28T22:28:53.826Z,97895.77
2019-02-28T22:31:45.869Z,97892.30
2019-02-28T22:34:22.988Z,97895.68
2019-02-28T22:36:53.245Z,97893.54
2019-02-28T22:39:23.531Z,97901.03
2019-02-28T22:41:53.758Z,97888.52
2019-02-28T22:44:24.003Z,97889.35
2019-02-28T22:46:54.285Z,97876.83
2019-02-28T22:49:24.488Z,97886.05
2019-02-28T22:51:54.779Z,97882.55
2019-02-28T22:54:25.084Z,97886.22
2019-02-28T22:56:55.304Z,97890.43
2019-02-28T22:59:25.453Z,97883.85
2019-02-28T23:01:56.516Z,97875.78
2019-02-28T23:04:26.766Z,97879.50
2019-02-28T23:06:57.085Z,97878.11
2019-02-28T23:09:28.508Z,97875.65
2019-02-28T23:11:58.892Z,97873.18
2019-02-28T23:14:29.129Z,97868.58
2019-02-28T23:16:59.527Z,97870.20
2019-02-28T23:19:29.799Z,97864.12
2019-02-28T23:22:00.139Z,97862.47
2019-02-28T23:24:30.271Z,97859.86
2019-02-28T23:27:18.469Z,97857.33
2019-02-28T23:30:12.760Z,97850.78
2019-02-28T23:33:06.122Z,97838.53
2019-02-28T23:35:40.828Z,97836.77
2019-02-28T23:38:11.303Z,97836.19
2019-02-28T23:40:41.533Z,97831.28
2019-02-28T23:43:11.747Z,97832.42
2019-02-28T23:45:42.041Z,97839.03
2019-02-28T23:48:12.337Z,97831.59
2019-02-28T23:50:42.813Z,97839.33
2019-02-28T23:53:13.053Z,97830.91
2019-02-28T23:55:43.409Z,97835.30
2019-02-28T23:58:13.635Z,97833.14
